sensor_id;sensor_type;location;lat;lon;timestamp;temperature;humidity
41447;DHT22;27185;52.040;4.490;2022-12-22T00:01:02;11.60;99.90
41447;DHT22;27185;52.040;4.490;2022-12-22T00:04:09;11.60;99.90
41447;DHT22;27185;52.040;4.490;2022-12-22T00:07:14;11.70;99.90
41447;DHT22;27185;52.040;4.490;2022-12-22T00:10:18;11.70;99.90
41447;DHT22;27185;52.040;4.490;2022-12-22T00:13:22;11.70;99.90
41447;DHT22;27185;52.040;4.490;2022-12-22T00:16:30;11.70;99.90
41447;DHT22;27185;52.040;4.490;2022-12-22T00:19:35;11.70;99.90
41447;DHT22;27185;52.040;4.490;2022-12-22T00:22:39;11.70;99.90
41447;DHT22;27185;52.040;4.490;2022-12-22T00:25:43;11.70;99.90
41447;DHT22;27185;52.040;4.490;2022-12-22T00:28:48;11.70;99.90
41447;DHT22;27185;52.040;4.490;2022-12-22T00:31:52;11.70;99.90
41447;DHT22;27185;52.040;4.490;2022-12-22T00:34:56;11.80;99.90
41447;DHT22;27185;52.040;4.490;2022-12-22T00:38:00;11.80;99.90
41447;DHT22;27185;52.040;4.490;2022-12-22T00:41:05;11.80;99.90
41447;DHT22;27185;52.040;4.490;2022-12-22T00:44:09;11.80;99.90
41447;DHT22;27185;52.040;4.490;2022-12-22T00:47:20;11.80;99.90
41447;DHT22;27185;52.040;4.490;2022-12-22T00:50:33;11.80;99.90
41447;DHT22;27185;52.040;4.490;2022-12-22T00:53:38;11.80;99.90
41447;DHT22;27185;52.040;4.490;2022-12-22T00:56:42;11.90;99.90
41447;DHT22;27185;52.040;4.490;2022-12-22T00:59:48;11.90;99.90
41447;DHT22;27185;52.040;4.490;2022-12-22T01:02:52;11.90;99.90
41447;DHT22;27185;52.040;4.490;2022-12-22T01:05:58;11.90;99.90
41447;DHT22;27185;52.040;4.490;2022-12-22T01:09:04;11.90;99.90
41447;DHT22;27185;52.040;4.490;2022-12-22T01:12:14;11.90;99.90
41447;DHT22;27185;52.040;4.490;2022-12-22T01:15:21;11.90;99.90
41447;DHT22;27185;52.040;4.490;2022-12-22T01:18:25;11.90;99.90
41447;DHT22;27185;52.040;4.490;2022-12-22T01:21:29;11.90;99.90
41447;DHT22;27185;52.040;4.490;2022-12-22T01:24:33;11.90;99.90
41447;DHT22;27185;52.040;4.490;2022-12-22T01:27:37;12.00;99.90
41447;DHT22;27185;52.040;4.490;2022-12-22T01:30:42;12.00;99.90
41447;DHT22;27185;52.040;4.490;2022-12-22T01:33:46;12.00;99.90
41447;DHT22;27185;52.040;4.490;2022-12-22T01:36:50;11.90;99.90
41447;DHT22;27185;52.040;4.490;2022-12-22T01:39:54;12.00;99.90
41447;DHT22;27185;52.040;4.490;2022-12-22T01:42:59;11.90;99.90
41447;DHT22;27185;52.040;4.490;2022-12-22T01:46:23;11.90;99.90
41447;DHT22;27185;52.040;4.490;2022-12-22T01:49:34;12.00;99.90
41447;DHT22;27185;52.040;4.490;2022-12-22T01:52:40;11.90;99.90
41447;DHT22;27185;52.040;4.490;2022-12-22T01:55:44;11.90;99.90
41447;DHT22;27185;52.040;4.490;2022-12-22T01:58:54;11.90;99.90
41447;DHT22;27185;52.040;4.490;2022-12-22T02:02:03;11.90;99.90
41447;DHT22;27185;52.040;4.490;2022-12-22T02:05:09;11.90;99.90
41447;DHT22;27185;52.040;4.490;2022-12-22T02:08:22;11.90;99.90
41447;DHT22;27185;52.040;4.490;2022-12-22T02:15:39;11.90;99.90
41447;DHT22;27185;52.040;4.490;2022-12-22T02:19:32;11.90;99.90
41447;DHT22;27185;52.040;4.490;2022-12-22T02:23:00;11.90;99.90
41447;DHT22;27185;52.040;4.490;2022-12-22T02:26:44;11.90;99.90
41447;DHT22;27185;52.040;4.490;2022-12-22T02:29:52;11.90;99.90
41447;DHT22;27185;52.040;4.490;2022-12-22T02:32:57;11.90;99.90
41447;DHT22;27185;52.040;4.490;2022-12-22T02:36:20;11.90;99.90
41447;DHT22;27185;52.040;4.490;2022-12-22T02:43:07;11.90;99.90
41447;DHT22;27185;52.040;4.490;2022-12-22T02:49:53;12.00;99.90
41447;DHT22;27185;52.040;4.490;2022-12-22T02:52:58;12.00;99.90
41447;DHT22;27185;52.040;4.490;2022-12-22T02:56:05;12.00;99.90
41447;DHT22;27185;52.040;4.490;2022-12-22T02:59:10;12.00;99.90
41447;DHT22;27185;52.040;4.490;2022-12-22T03:02:14;12.00;99.90
41447;DHT22;27185;52.040;4.490;2022-12-22T03:05:18;12.00;99.90
41447;DHT22;27185;52.040;4.490;2022-12-22T03:08:22;12.00;99.90
41447;DHT22;27185;52.040;4.490;2022-12-22T03:11:26;12.00;99.90
41447;DHT22;27185;52.040;4.490;2022-12-22T03:14:30;12.00;99.90
41447;DHT22;27185;52.040;4.490;2022-12-22T03:17:34;12.00;99.90
41447;DHT22;27185;52.040;4.490;2022-12-22T03:20:38;12.00;99.90
41447;DHT22;27185;52.040;4.490;2022-12-22T03:23:42;12.00;99.90
41447;DHT22;27185;52.040;4.490;2022-12-22T03:26:46;12.10;99.90
41447;DHT22;27185;52.040;4.490;2022-12-22T03:29:32;12.10;99.90
41447;DHT22;27185;52.040;4.490;2022-12-22T03:32:18;12.00;99.90
41447;DHT22;27185;52.040;4.490;2022-12-22T03:35:03;12.10;99.90
41447;DHT22;27185;52.040;4.490;2022-12-22T03:37:49;12.00;99.90
41447;DHT22;27185;52.040;4.490;2022-12-22T03:40:35;12.10;99.90
41447;DHT22;27185;52.040;4.490;2022-12-22T03:43:20;12.00;99.90
41447;DHT22;27185;52.040;4.490;2022-12-22T03:46:24;12.10;99.90
41447;DHT22;27185;52.040;4.490;2022-12-22T03:49:15;12.10;99.90
41447;DHT22;27185;52.040;4.490;2022-12-22T03:52:03;12.00;99.90
41447;DHT22;27185;52.040;4.490;2022-12-22T03:54:49;12.00;99.90
41447;DHT22;27185;52.040;4.490;2022-12-22T03:57:34;12.00;99.90
41447;DHT22;27185;52.040;4.490;2022-12-22T04:00:20;12.00;99.90
41447;DHT22;27185;52.040;4.490;2022-12-22T04:03:06;12.00;99.90
41447;DHT22;27185;52.040;4.490;2022-12-22T04:05:51;12.00;99.90
41447;DHT22;27185;52.040;4.490;2022-12-22T04:08:37;12.00;99.90
41447;DHT22;27185;52.040;4.490;2022-12-22T04:11:22;12.00;99.90
41447;DHT22;27185;52.040;4.490;2022-12-22T04:14:27;12.00;99.90
41447;DHT22;27185;52.040;4.490;2022-12-22T04:17:12;12.00;99.90
41447;DHT22;27185;52.040;4.490;2022-12-22T04:19:58;11.90;99.90
41447;DHT22;27185;52.040;4.490;2022-12-22T04:22:43;11.90;99.90
41447;DHT22;27185;52.040;4.490;2022-12-22T04:25:29;11.90;99.90
41447;DHT22;27185;52.040;4.490;2022-12-22T04:28:15;11.90;99.90
41447;DHT22;27185;52.040;4.490;2022-12-22T04:31:00;11.90;99.90
41447;DHT22;27185;52.040;4.490;2022-12-22T04:33:46;11.90;99.90
41447;DHT22;27185;52.040;4.490;2022-12-22T04:36:31;11.90;99.90
41447;DHT22;27185;52.040;4.490;2022-12-22T04:39:17;11.90;99.90
41447;DHT22;27185;52.040;4.490;2022-12-22T04:42:03;11.90;99.90
41447;DHT22;27185;52.040;4.490;2022-12-22T04:44:48;11.80;99.90
41447;DHT22;27185;52.040;4.490;2022-12-22T04:47:34;11.80;99.90
41447;DHT22;27185;52.040;4.490;2022-12-22T04:50:20;11.80;99.90
41447;DHT22;27185;52.040;4.490;2022-12-22T04:53:05;11.80;99.90
41447;DHT22;27185;52.040;4.490;2022-12-22T04:55:56;11.80;99.90
41447;DHT22;27185;52.040;4.490;2022-12-22T04:58:43;11.70;99.90
41447;DHT22;27185;52.040;4.490;2022-12-22T05:01:28;11.70;99.90
41447;DHT22;27185;52.040;4.490;2022-12-22T05:04:14;11.70;99.90
41447;DHT22;27185;52.040;4.490;2022-12-22T05:06:59;11.60;99.90
41447;DHT22;27185;52.040;4.490;2022-12-22T05:09:45;11.60;99.90
41447;DHT22;27185;52.040;4.490;2022-12-22T05:12:31;11.50;99.90
41447;DHT22;27185;52.040;4.490;2022-12-22T05:15:35;11.50;99.90
41447;DHT22;27185;52.040;4.490;2022-12-22T05:18:22;11.50;99.90
41447;DHT22;27185;52.040;4.490;2022-12-22T05:21:19;11.40;99.90
41447;DHT22;27185;52.040;4.490;2022-12-22T05:24:05;11.40;99.90
41447;DHT22;27185;52.040;4.490;2022-12-22T05:26:51;11.40;99.90
41447;DHT22;27185;52.040;4.490;2022-12-22T05:29:36;11.40;99.90
41447;DHT22;27185;52.040;4.490;2022-12-22T05:32:22;11.30;99.90
41447;DHT22;27185;52.040;4.490;2022-12-22T05:35:08;11.20;99.90
41447;DHT22;27185;52.040;4.490;2022-12-22T05:37:54;11.20;99.90
41447;DHT22;27185;52.040;4.490;2022-12-22T05:40:40;11.10;99.90
41447;DHT22;27185;52.040;4.490;2022-12-22T05:43:25;11.10;99.90
41447;DHT22;27185;52.040;4.490;2022-12-22T05:46:11;11.10;99.90
41447;DHT22;27185;52.040;4.490;2022-12-22T05:48:56;11.00;99.90
41447;DHT22;27185;52.040;4.490;2022-12-22T05:51:42;11.00;99.90
41447;DHT22;27185;52.040;4.490;2022-12-22T05:54:27;10.90;99.90
41447;DHT22;27185;52.040;4.490;2022-12-22T05:57:13;10.90;99.90
41447;DHT22;27185;52.040;4.490;2022-12-22T05:59:59;10.90;99.90
41447;DHT22;27185;52.040;4.490;2022-12-22T06:02:46;10.90;99.90
41447;DHT22;27185;52.040;4.490;2022-12-22T06:05:31;10.90;99.90
41447;DHT22;27185;52.040;4.490;2022-12-22T06:08:17;10.80;99.90
41447;DHT22;27185;52.040;4.490;2022-12-22T06:11:02;10.80;99.90
41447;DHT22;27185;52.040;4.490;2022-12-22T06:13:48;10.80;99.90
41447;DHT22;27185;52.040;4.490;2022-12-22T06:16:34;10.70;99.90
41447;DHT22;27185;52.040;4.490;2022-12-22T06:19:19;10.70;99.90
41447;DHT22;27185;52.040;4.490;2022-12-22T06:22:05;10.60;99.90
41447;DHT22;27185;52.040;4.490;2022-12-22T06:24:50;10.60;99.90
41447;DHT22;27185;52.040;4.490;2022-12-22T06:27:36;10.60;99.90
41447;DHT22;27185;52.040;4.490;2022-12-22T06:30:22;10.50;99.90
41447;DHT22;27185;52.040;4.490;2022-12-22T06:33:07;10.50;99.90
41447;DHT22;27185;52.040;4.490;2022-12-22T06:35:53;10.40;99.90
41447;DHT22;27185;52.040;4.490;2022-12-22T06:38:38;10.40;99.90
41447;DHT22;27185;52.040;4.490;2022-12-22T06:41:24;10.40;99.90
41447;DHT22;27185;52.040;4.490;2022-12-22T06:44:28;10.30;99.90
41447;DHT22;27185;52.040;4.490;2022-12-22T06:47:14;10.30;99.90
41447;DHT22;27185;52.040;4.490;2022-12-22T06:49:59;10.20;99.90
41447;DHT22;27185;52.040;4.490;2022-12-22T06:52:45;10.20;99.90
41447;DHT22;27185;52.040;4.490;2022-12-22T06:55:30;10.20;99.90
41447;DHT22;27185;52.040;4.490;2022-12-22T06:58:16;10.10;99.90
41447;DHT22;27185;52.040;4.490;2022-12-22T07:01:01;10.10;99.90
41447;DHT22;27185;52.040;4.490;2022-12-22T07:03:48;10.00;99.90
41447;DHT22;27185;52.040;4.490;2022-12-22T07:06:33;9.90;99.90
41447;DHT22;27185;52.040;4.490;2022-12-22T07:09:19;9.90;99.90
41447;DHT22;27185;52.040;4.490;2022-12-22T07:12:05;9.80;99.90
41447;DHT22;27185;52.040;4.490;2022-12-22T07:14:50;9.80;99.90
41447;DHT22;27185;52.040;4.490;2022-12-22T07:17:36;9.70;99.90
41447;DHT22;27185;52.040;4.490;2022-12-22T07:20:22;9.60;99.90
41447;DHT22;27185;52.040;4.490;2022-12-22T07:23:07;9.50;99.90
41447;DHT22;27185;52.040;4.490;2022-12-22T07:25:53;9.40;99.90
41447;DHT22;27185;52.040;4.490;2022-12-22T07:28:39;9.40;99.90
41447;DHT22;27185;52.040;4.490;2022-12-22T07:31:25;9.30;99.90
41447;DHT22;27185;52.040;4.490;2022-12-22T07:34:11;9.30;99.90
41447;DHT22;27185;52.040;4.490;2022-12-22T07:36:56;9.30;99.90
41447;DHT22;27185;52.040;4.490;2022-12-22T07:39:42;9.20;99.90
41447;DHT22;27185;52.040;4.490;2022-12-22T07:42:27;9.20;99.90
41447;DHT22;27185;52.040;4.490;2022-12-22T07:45:31;9.10;99.90
41447;DHT22;27185;52.040;4.490;2022-12-22T07:48:18;9.00;99.90
41447;DHT22;27185;52.040;4.490;2022-12-22T07:51:22;9.00;99.90
41447;DHT22;27185;52.040;4.490;2022-12-22T07:54:10;9.00;99.90
41447;DHT22;27185;52.040;4.490;2022-12-22T07:56:55;8.90;99.90
41447;DHT22;27185;52.040;4.490;2022-12-22T07:59:41;8.90;99.90
41447;DHT22;27185;52.040;4.490;2022-12-22T08:02:26;8.80;99.90
41447;DHT22;27185;52.040;4.490;2022-12-22T08:05:12;8.80;99.90
41447;DHT22;27185;52.040;4.490;2022-12-22T08:07:58;8.70;99.90
41447;DHT22;27185;52.040;4.490;2022-12-22T08:10:43;8.70;99.90
41447;DHT22;27185;52.040;4.490;2022-12-22T08:13:29;8.70;99.90
41447;DHT22;27185;52.040;4.490;2022-12-22T08:16:15;8.70;99.90
41447;DHT22;27185;52.040;4.490;2022-12-22T08:19:01;8.60;99.90
41447;DHT22;27185;52.040;4.490;2022-12-22T08:21:46;8.60;99.90
41447;DHT22;27185;52.040;4.490;2022-12-22T08:24:33;8.50;99.90
41447;DHT22;27185;52.040;4.490;2022-12-22T08:27:26;8.50;99.90
41447;DHT22;27185;52.040;4.490;2022-12-22T08:30:13;8.50;99.90
41447;DHT22;27185;52.040;4.490;2022-12-22T08:32:58;8.40;99.90
41447;DHT22;27185;52.040;4.490;2022-12-22T08:35:44;8.40;99.90
41447;DHT22;27185;52.040;4.490;2022-12-22T08:38:30;8.40;99.90
41447;DHT22;27185;52.040;4.490;2022-12-22T08:41:16;8.40;99.90
41447;DHT22;27185;52.040;4.490;2022-12-22T08:44:24;8.40;99.90
41447;DHT22;27185;52.040;4.490;2022-12-22T08:47:10;8.40;99.90
41447;DHT22;27185;52.040;4.490;2022-12-22T08:49:55;8.40;99.90
41447;DHT22;27185;52.040;4.490;2022-12-22T08:52:41;8.40;99.90
41447;DHT22;27185;52.040;4.490;2022-12-22T08:55:27;8.40;99.90
41447;DHT22;27185;52.040;4.490;2022-12-22T08:58:12;8.40;99.90
41447;DHT22;27185;52.040;4.490;2022-12-22T09:00:58;8.40;99.90
41447;DHT22;27185;52.040;4.490;2022-12-22T09:03:47;8.40;99.90
41447;DHT22;27185;52.040;4.490;2022-12-22T09:06:34;8.40;99.90
41447;DHT22;27185;52.040;4.490;2022-12-22T09:09:20;8.40;99.90
41447;DHT22;27185;52.040;4.490;2022-12-22T09:12:06;8.30;99.90
41447;DHT22;27185;52.040;4.490;2022-12-22T09:14:51;8.30;99.90
41447;DHT22;27185;52.040;4.490;2022-12-22T09:17:37;8.30;99.90
41447;DHT22;27185;52.040;4.490;2022-12-22T09:20:22;8.30;99.90
41447;DHT22;27185;52.040;4.490;2022-12-22T09:23:08;8.30;99.90
41447;DHT22;27185;52.040;4.490;2022-12-22T09:25:54;8.40;99.90
41447;DHT22;27185;52.040;4.490;2022-12-22T09:28:39;8.40;99.90
41447;DHT22;27185;52.040;4.490;2022-12-22T09:31:25;8.50;99.90
41447;DHT22;27185;52.040;4.490;2022-12-22T09:34:11;8.60;99.90
41447;DHT22;27185;52.040;4.490;2022-12-22T09:36:57;8.70;99.90
41447;DHT22;27185;52.040;4.490;2022-12-22T09:39:42;8.70;99.90
41447;DHT22;27185;52.040;4.490;2022-12-22T09:42:29;8.80;99.90
41447;DHT22;27185;52.040;4.490;2022-12-22T09:45:17;8.90;99.90
41447;DHT22;27185;52.040;4.490;2022-12-22T09:48:09;9.00;99.90
41447;DHT22;27185;52.040;4.490;2022-12-22T09:50:55;9.00;99.90
41447;DHT22;27185;52.040;4.490;2022-12-22T09:53:42;9.10;99.90
41447;DHT22;27185;52.040;4.490;2022-12-22T09:56:29;9.20;99.90
41447;DHT22;27185;52.040;4.490;2022-12-22T09:59:17;9.30;99.90
41447;DHT22;27185;52.040;4.490;2022-12-22T10:02:31;9.40;99.90
41447;DHT22;27185;52.040;4.490;2022-12-22T10:05:23;9.40;99.90
41447;DHT22;27185;52.040;4.490;2022-12-22T10:08:25;9.50;99.90
41447;DHT22;27185;52.040;4.490;2022-12-22T10:11:17;9.60;99.90
41447;DHT22;27185;52.040;4.490;2022-12-22T10:14:03;9.60;99.90
41447;DHT22;27185;52.040;4.490;2022-12-22T10:16:48;9.70;99.90
41447;DHT22;27185;52.040;4.490;2022-12-22T10:19:34;9.80;99.90
41447;DHT22;27185;52.040;4.490;2022-12-22T10:22:34;9.80;99.90
41447;DHT22;27185;52.040;4.490;2022-12-22T10:25:31;9.90;99.90
41447;DHT22;27185;52.040;4.490;2022-12-22T10:28:20;10.00;99.90
41447;DHT22;27185;52.040;4.490;2022-12-22T10:31:12;10.10;99.90
41447;DHT22;27185;52.040;4.490;2022-12-22T10:34:15;10.10;99.90
41447;DHT22;27185;52.040;4.490;2022-12-22T10:37:03;10.20;99.90
41447;DHT22;27185;52.040;4.490;2022-12-22T10:39:49;10.30;99.90
41447;DHT22;27185;52.040;4.490;2022-12-22T10:42:35;10.40;99.90
41447;DHT22;27185;52.040;4.490;2022-12-22T10:45:23;10.50;99.90
41447;DHT22;27185;52.040;4.490;2022-12-22T10:48:10;10.50;99.90
41447;DHT22;27185;52.040;4.490;2022-12-22T10:50:56;10.60;99.90
41447;DHT22;27185;52.040;4.490;2022-12-22T10:53:52;10.60;99.90
41447;DHT22;27185;52.040;4.490;2022-12-22T10:56:38;10.70;99.90
41447;DHT22;27185;52.040;4.490;2022-12-22T10:59:24;10.70;99.90
41447;DHT22;27185;52.040;4.490;2022-12-22T11:02:31;10.80;99.90
41447;DHT22;27185;52.040;4.490;2022-12-22T11:05:18;10.80;99.90
41447;DHT22;27185;52.040;4.490;2022-12-22T11:08:16;10.90;99.90
41447;DHT22;27185;52.040;4.490;2022-12-22T11:11:18;11.10;99.90
41447;DHT22;27185;52.040;4.490;2022-12-22T11:17:18;11.20;99.90
41447;DHT22;27185;52.040;4.490;2022-12-22T11:23:35;10.90;99.90
41447;DHT22;27185;52.040;4.490;2022-12-22T11:27:06;10.80;99.90
41447;DHT22;27185;52.040;4.490;2022-12-22T11:30:19;10.70;99.90
41447;DHT22;27185;52.040;4.490;2022-12-22T11:33:57;10.50;99.90
41447;DHT22;27185;52.040;4.490;2022-12-22T11:39:42;10.10;99.90
41447;DHT22;27185;52.040;4.490;2022-12-22T11:45:46;9.90;99.90
41447;DHT22;27185;52.040;4.490;2022-12-22T11:48:43;9.80;99.90
41447;DHT22;27185;52.040;4.490;2022-12-22T11:58:22;9.80;99.90
41447;DHT22;27185;52.040;4.490;2022-12-22T12:01:30;9.90;99.90
41447;DHT22;27185;52.040;4.490;2022-12-22T12:04:47;9.90;99.90
41447;DHT22;27185;52.040;4.490;2022-12-22T12:10:46;9.90;99.90
41447;DHT22;27185;52.040;4.490;2022-12-22T12:13:42;9.90;99.90
41447;DHT22;27185;52.040;4.490;2022-12-22T12:16:48;10.00;99.90
41447;DHT22;27185;52.040;4.490;2022-12-22T12:20:02;10.00;99.90
41447;DHT22;27185;52.040;4.490;2022-12-22T12:26:09;10.10;99.90
41447;DHT22;27185;52.040;4.490;2022-12-22T12:29:18;10.10;99.90
41447;DHT22;27185;52.040;4.490;2022-12-22T12:35:09;10.20;99.90
41447;DHT22;27185;52.040;4.490;2022-12-22T12:41:22;10.30;99.90
41447;DHT22;27185;52.040;4.490;2022-12-22T12:44:15;10.30;99.90
41447;DHT22;27185;52.040;4.490;2022-12-22T12:47:21;10.40;99.90
41447;DHT22;27185;52.040;4.490;2022-12-22T12:50:30;10.40;99.90
41447;DHT22;27185;52.040;4.490;2022-12-22T12:53:17;10.50;99.90
41447;DHT22;27185;52.040;4.490;2022-12-22T12:56:07;10.60;99.90
41447;DHT22;27185;52.040;4.490;2022-12-22T12:58:53;10.60;99.90
41447;DHT22;27185;52.040;4.490;2022-12-22T13:16:26;10.80;99.90
41447;DHT22;27185;52.040;4.490;2022-12-22T13:19:16;10.80;99.90
41447;DHT22;27185;52.040;4.490;2022-12-22T13:22:06;10.90;99.90
41447;DHT22;27185;52.040;4.490;2022-12-22T13:24:53;10.90;99.90
41447;DHT22;27185;52.040;4.490;2022-12-22T13:27:40;10.90;99.90
41447;DHT22;27185;52.040;4.490;2022-12-22T13:30:28;11.00;99.90
41447;DHT22;27185;52.040;4.490;2022-12-22T13:33:18;11.10;99.90
41447;DHT22;27185;52.040;4.490;2022-12-22T13:36:07;11.10;99.90
41447;DHT22;27185;52.040;4.490;2022-12-22T13:39:02;11.20;99.90
41447;DHT22;27185;52.040;4.490;2022-12-22T13:41:49;11.30;99.90
41447;DHT22;27185;52.040;4.490;2022-12-22T13:44:37;11.30;99.90
41447;DHT22;27185;52.040;4.490;2022-12-22T13:47:24;11.40;99.90
41447;DHT22;27185;52.040;4.490;2022-12-22T13:50:24;11.40;99.90
41447;DHT22;27185;52.040;4.490;2022-12-22T13:53:17;11.50;99.90
41447;DHT22;27185;52.040;4.490;2022-12-22T13:56:11;11.50;99.90
41447;DHT22;27185;52.040;4.490;2022-12-22T13:58:59;11.60;99.90
41447;DHT22;27185;52.040;4.490;2022-12-22T14:01:50;11.60;99.90
41447;DHT22;27185;52.040;4.490;2022-12-22T14:04:38;11.60;99.90
41447;DHT22;27185;52.040;4.490;2022-12-22T14:07:24;11.60;99.90
41447;DHT22;27185;52.040;4.490;2022-12-22T14:10:09;11.60;99.90
41447;DHT22;27185;52.040;4.490;2022-12-22T14:12:55;11.60;99.90
41447;DHT22;27185;52.040;4.490;2022-12-22T14:15:42;11.50;99.90
41447;DHT22;27185;52.040;4.490;2022-12-22T14:18:28;11.50;99.90
41447;DHT22;27185;52.040;4.490;2022-12-22T14:21:16;11.50;99.90
41447;DHT22;27185;52.040;4.490;2022-12-22T14:24:01;11.50;99.90
41447;DHT22;27185;52.040;4.490;2022-12-22T14:26:50;11.50;99.90
41447;DHT22;27185;52.040;4.490;2022-12-22T14:29:36;11.40;99.90
41447;DHT22;27185;52.040;4.490;2022-12-22T14:32:40;11.30;99.90
41447;DHT22;27185;52.040;4.490;2022-12-22T14:35:28;11.30;99.90
41447;DHT22;27185;52.040;4.490;2022-12-22T14:38:24;11.30;99.90
41447;DHT22;27185;52.040;4.490;2022-12-22T14:41:15;11.30;99.90
41447;DHT22;27185;52.040;4.490;2022-12-22T14:50:23;11.20;99.90
41447;DHT22;27185;52.040;4.490;2022-12-22T14:53:11;11.20;99.90
41447;DHT22;27185;52.040;4.490;2022-12-22T14:55:57;11.20;99.90
41447;DHT22;27185;52.040;4.490;2022-12-22T14:58:44;11.20;99.90
41447;DHT22;27185;52.040;4.490;2022-12-22T15:01:30;11.20;99.90
41447;DHT22;27185;52.040;4.490;2022-12-22T15:04:18;11.20;99.90
41447;DHT22;27185;52.040;4.490;2022-12-22T15:07:16;11.20;99.90
41447;DHT22;27185;52.040;4.490;2022-12-22T15:10:03;11.20;99.90
41447;DHT22;27185;52.040;4.490;2022-12-22T15:12:51;11.20;99.90
41447;DHT22;27185;52.040;4.490;2022-12-22T15:15:39;11.20;99.90
41447;DHT22;27185;52.040;4.490;2022-12-22T15:18:26;11.20;99.90
41447;DHT22;27185;52.040;4.490;2022-12-22T15:21:13;11.20;99.90
41447;DHT22;27185;52.040;4.490;2022-12-22T15:24:00;11.20;99.90
41447;DHT22;27185;52.040;4.490;2022-12-22T15:26:45;11.20;99.90
41447;DHT22;27185;52.040;4.490;2022-12-22T15:29:31;11.20;99.90
41447;DHT22;27185;52.040;4.490;2022-12-22T15:32:17;11.10;99.90
41447;DHT22;27185;52.040;4.490;2022-12-22T15:35:04;11.20;99.90
41447;DHT22;27185;52.040;4.490;2022-12-22T15:37:53;11.20;99.90
41447;DHT22;27185;52.040;4.490;2022-12-22T15:40:39;11.20;99.90
41447;DHT22;27185;52.040;4.490;2022-12-22T15:43:24;11.20;99.90
41447;DHT22;27185;52.040;4.490;2022-12-22T15:46:13;11.20;99.90
41447;DHT22;27185;52.040;4.490;2022-12-22T15:48:59;11.20;99.90
41447;DHT22;27185;52.040;4.490;2022-12-22T15:51:49;11.20;99.90
41447;DHT22;27185;52.040;4.490;2022-12-22T15:54:36;11.20;99.90
41447;DHT22;27185;52.040;4.490;2022-12-22T15:57:21;11.20;99.90
41447;DHT22;27185;52.040;4.490;2022-12-22T16:00:12;11.20;99.90
41447;DHT22;27185;52.040;4.490;2022-12-22T16:02:58;11.20;99.90
41447;DHT22;27185;52.040;4.490;2022-12-22T16:05:44;11.30;99.90
41447;DHT22;27185;52.040;4.490;2022-12-22T16:08:32;11.20;99.90
41447;DHT22;27185;52.040;4.490;2022-12-22T16:11:21;11.20;99.90
41447;DHT22;27185;52.040;4.490;2022-12-22T16:14:10;11.30;99.90
41447;DHT22;27185;52.040;4.490;2022-12-22T16:16:57;11.30;99.90
41447;DHT22;27185;52.040;4.490;2022-12-22T16:19:42;11.30;99.90
41447;DHT22;27185;52.040;4.490;2022-12-22T16:22:32;11.30;99.90
41447;DHT22;27185;52.040;4.490;2022-12-22T16:25:21;11.30;99.90
41447;DHT22;27185;52.040;4.490;2022-12-22T16:28:14;11.30;99.90
41447;DHT22;27185;52.040;4.490;2022-12-22T16:31:01;11.30;99.90
41447;DHT22;27185;52.040;4.490;2022-12-22T16:33:47;11.30;99.90
41447;DHT22;27185;52.040;4.490;2022-12-22T16:36:33;11.30;99.90
41447;DHT22;27185;52.040;4.490;2022-12-22T16:39:18;11.30;99.90
41447;DHT22;27185;52.040;4.490;2022-12-22T16:42:05;11.30;99.90
41447;DHT22;27185;52.040;4.490;2022-12-22T16:44:51;11.30;99.90
41447;DHT22;27185;52.040;4.490;2022-12-22T16:47:36;11.40;99.90
41447;DHT22;27185;52.040;4.490;2022-12-22T16:50:26;11.40;99.90
41447;DHT22;27185;52.040;4.490;2022-12-22T16:53:16;11.40;99.90
41447;DHT22;27185;52.040;4.490;2022-12-22T16:56:02;11.40;99.90
41447;DHT22;27185;52.040;4.490;2022-12-22T16:58:48;11.40;99.90
41447;DHT22;27185;52.040;4.490;2022-12-22T17:02:22;11.50;99.90
41447;DHT22;27185;52.040;4.490;2022-12-22T17:08:16;11.50;99.90
41447;DHT22;27185;52.040;4.490;2022-12-22T17:11:06;11.50;99.90
41447;DHT22;27185;52.040;4.490;2022-12-22T17:13:58;11.50;99.90
41447;DHT22;27185;52.040;4.490;2022-12-22T17:16:45;11.50;99.90
41447;DHT22;27185;52.040;4.490;2022-12-22T17:19:32;11.50;99.90
41447;DHT22;27185;52.040;4.490;2022-12-22T17:22:29;11.50;99.90
41447;DHT22;27185;52.040;4.490;2022-12-22T17:25:17;11.60;99.90
41447;DHT22;27185;52.040;4.490;2022-12-22T17:28:03;11.60;99.90
41447;DHT22;27185;52.040;4.490;2022-12-22T17:30:49;11.60;99.90
41447;DHT22;27185;52.040;4.490;2022-12-22T17:33:35;11.60;99.90
41447;DHT22;27185;52.040;4.490;2022-12-22T17:39:14;11.60;99.90
41447;DHT22;27185;52.040;4.490;2022-12-22T17:42:01;11.50;99.90
41447;DHT22;27185;52.040;4.490;2022-12-22T17:44:47;11.50;99.90
41447;DHT22;27185;52.040;4.490;2022-12-22T17:47:33;11.60;99.90
41447;DHT22;27185;52.040;4.490;2022-12-22T17:50:20;11.60;99.90
41447;DHT22;27185;52.040;4.490;2022-12-22T17:53:14;11.60;99.90
41447;DHT22;27185;52.040;4.490;2022-12-22T17:56:01;11.60;99.90
41447;DHT22;27185;52.040;4.490;2022-12-22T17:58:47;11.60;99.90
41447;DHT22;27185;52.040;4.490;2022-12-22T18:01:33;11.70;99.90
41447;DHT22;27185;52.040;4.490;2022-12-22T18:04:21;11.80;99.90
41447;DHT22;27185;52.040;4.490;2022-12-22T18:07:06;11.80;99.90
41447;DHT22;27185;52.040;4.490;2022-12-22T18:09:57;11.80;99.90
41447;DHT22;27185;52.040;4.490;2022-12-22T18:12:44;11.90;99.90
41447;DHT22;27185;52.040;4.490;2022-12-22T18:15:29;11.90;99.90
41447;DHT22;27185;52.040;4.490;2022-12-22T18:18:16;12.00;99.90
41447;DHT22;27185;52.040;4.490;2022-12-22T18:21:02;12.00;99.90
41447;DHT22;27185;52.040;4.490;2022-12-22T18:23:49;12.00;99.90
41447;DHT22;27185;52.040;4.490;2022-12-22T18:26:34;12.10;99.90
41447;DHT22;27185;52.040;4.490;2022-12-22T18:29:21;12.10;99.90
41447;DHT22;27185;52.040;4.490;2022-12-22T18:32:07;12.20;99.90
41447;DHT22;27185;52.040;4.490;2022-12-22T18:34:55;12.10;99.90
41447;DHT22;27185;52.040;4.490;2022-12-22T18:37:41;12.20;99.90
41447;DHT22;27185;52.040;4.490;2022-12-22T18:40:33;12.20;99.90
41447;DHT22;27185;52.040;4.490;2022-12-22T18:43:19;12.30;99.90
41447;DHT22;27185;52.040;4.490;2022-12-22T18:46:09;12.30;99.90
41447;DHT22;27185;52.040;4.490;2022-12-22T18:48:54;12.30;99.90
41447;DHT22;27185;52.040;4.490;2022-12-22T18:51:44;12.30;99.90
41447;DHT22;27185;52.040;4.490;2022-12-22T18:54:30;12.30;99.90
41447;DHT22;27185;52.040;4.490;2022-12-22T18:57:21;12.30;99.90
41447;DHT22;27185;52.040;4.490;2022-12-22T19:00:11;12.40;99.90
41447;DHT22;27185;52.040;4.490;2022-12-22T19:02:58;12.40;99.90
41447;DHT22;27185;52.040;4.490;2022-12-22T19:05:45;12.40;99.90
41447;DHT22;27185;52.040;4.490;2022-12-22T19:08:31;12.40;99.90
41447;DHT22;27185;52.040;4.490;2022-12-22T19:11:21;12.40;99.90
41447;DHT22;27185;52.040;4.490;2022-12-22T19:14:18;12.40;99.90
41447;DHT22;27185;52.040;4.490;2022-12-22T19:17:11;12.50;99.90
41447;DHT22;27185;52.040;4.490;2022-12-22T19:19:57;12.50;99.90
41447;DHT22;27185;52.040;4.490;2022-12-22T19:22:44;12.50;99.90